sensor_id;sensor_type;location;lat;lon;timestamp;P1;durP1;ratioP1;P2;durP2;ratioP2
27857;SDS011;16852;51.446;6.528;2023-11-22T00:00:55;10.25;;;6.50;;
27857;SDS011;16852;51.446;6.528;2023-11-22T00:02:56;8.95;;;6.25;;
27857;SDS011;16852;51.446;6.528;2023-11-22T00:04:57;9.77;;;7.13;;
27857;SDS011;16852;51.446;6.528;2023-11-22T00:06:58;8.68;;;6.28;;
27857;SDS011;16852;51.446;6.528;2023-11-22T00:08:58;10.38;;;6.68;;
27857;SDS011;16852;51.446;6.528;2023-11-22T00:10:59;7.80;;;6.15;;
27857;SDS011;16852;51.446;6.528;2023-11-22T00:12:59;8.77;;;6.80;;
27857;SDS011;16852;51.446;6.528;2023-11-22T00:15:00;8.90;;;7.07;;
27857;SDS011;16852;51.446;6.528;2023-11-22T00:17:01;8.70;;;6.18;;
27857;SDS011;16852;51.446;6.528;2023-11-22T00:19:02;9.52;;;7.15;;
27857;SDS011;16852;51.446;6.528;2023-11-22T00:21:03;10.00;;;7.22;;
27857;SDS011;16852;51.446;6.528;2023-11-22T00:23:03;10.60;;;7.75;;
27857;SDS011;16852;51.446;6.528;2023-11-22T00:25:04;10.25;;;7.45;;
27857;SDS011;16852;51.446;6.528;2023-11-22T00:27:05;10.60;;;7.45;;
27857;SDS011;16852;51.446;6.528;2023-11-22T00:29:06;9.75;;;7.15;;
27857;SDS011;16852;51.446;6.528;2023-11-22T00:31:08;9.50;;;7.43;;
27857;SDS011;16852;51.446;6.528;2023-11-22T00:33:09;11.82;;;8.10;;
27857;SDS011;16852;51.446;6.528;2023-11-22T00:35:09;11.23;;;7.90;;
27857;SDS011;16852;51.446;6.528;2023-11-22T00:37:10;9.38;;;7.25;;
27857;SDS011;16852;51.446;6.528;2023-11-22T00:39:11;15.27;;;8.98;;
27857;SDS011;16852;51.446;6.528;2023-11-22T00:41:13;11.75;;;7.90;;
27857;SDS011;16852;51.446;6.528;2023-11-22T00:43:16;9.68;;;7.43;;
27857;SDS011;16852;51.446;6.528;2023-11-22T00:45:19;10.25;;;7.40;;
27857;SDS011;16852;51.446;6.528;2023-11-22T00:47:20;12.95;;;8.13;;
27857;SDS011;16852;51.446;6.528;2023-11-22T00:49:21;10.55;;;7.82;;
27857;SDS011;16852;51.446;6.528;2023-11-22T00:51:21;11.23;;;7.85;;
27857;SDS011;16852;51.446;6.528;2023-11-22T00:53:22;11.38;;;8.60;;
27857;SDS011;16852;51.446;6.528;2023-11-22T00:55:23;10.98;;;8.05;;
27857;SDS011;16852;51.446;6.528;2023-11-22T00:57:24;13.85;;;9.07;;
27857;SDS011;16852;51.446;6.528;2023-11-22T01:01:27;11.45;;;8.48;;
27857;SDS011;16852;51.446;6.528;2023-11-22T01:03:27;11.48;;;8.30;;
27857;SDS011;16852;51.446;6.528;2023-11-22T01:05:28;12.35;;;8.57;;
27857;SDS011;16852;51.446;6.528;2023-11-22T01:07:29;11.55;;;8.43;;
27857;SDS011;16852;51.446;6.528;2023-11-22T01:09:30;13.57;;;8.80;;
27857;SDS011;16852;51.446;6.528;2023-11-22T01:11:32;11.57;;;8.75;;
27857;SDS011;16852;51.446;6.528;2023-11-22T01:13:32;12.90;;;9.20;;
27857;SDS011;16852;51.446;6.528;2023-11-22T01:15:40;15.27;;;9.43;;
27857;SDS011;16852;51.446;6.528;2023-11-22T01:17:41;14.23;;;9.87;;
27857;SDS011;16852;51.446;6.528;2023-11-22T01:19:42;13.30;;;8.93;;
27857;SDS011;16852;51.446;6.528;2023-11-22T01:21:43;13.15;;;9.20;;
27857;SDS011;16852;51.446;6.528;2023-11-22T01:23:44;11.98;;;8.98;;
27857;SDS011;16852;51.446;6.528;2023-11-22T01:25:45;13.15;;;8.95;;
27857;SDS011;16852;51.446;6.528;2023-11-22T01:27:46;12.40;;;8.88;;
27857;SDS011;16852;51.446;6.528;2023-11-22T01:29:46;14.10;;;9.43;;
27857;SDS011;16852;51.446;6.528;2023-11-22T01:31:47;13.80;;;9.65;;
27857;SDS011;16852;51.446;6.528;2023-11-22T01:33:48;13.23;;;8.98;;
27857;SDS011;16852;51.446;6.528;2023-11-22T01:35:48;13.70;;;9.60;;
27857;SDS011;16852;51.446;6.528;2023-11-22T01:37:50;15.85;;;10.32;;
27857;SDS011;16852;51.446;6.528;2023-11-22T01:39:51;14.85;;;9.75;;
27857;SDS011;16852;51.446;6.528;2023-11-22T01:41:52;16.52;;;9.68;;
27857;SDS011;16852;51.446;6.528;2023-11-22T01:43:54;16.70;;;10.63;;
27857;SDS011;16852;51.446;6.528;2023-11-22T01:45:55;15.27;;;10.85;;
27857;SDS011;16852;51.446;6.528;2023-11-22T01:47:56;14.85;;;9.85;;
27857;SDS011;16852;51.446;6.528;2023-11-22T01:49:56;15.68;;;10.68;;
27857;SDS011;16852;51.446;6.528;2023-11-22T01:51:57;15.27;;;9.85;;
27857;SDS011;16852;51.446;6.528;2023-11-22T01:53:58;19.35;;;10.77;;
27857;SDS011;16852;51.446;6.528;2023-11-22T01:56:00;16.00;;;10.70;;
27857;SDS011;16852;51.446;6.528;2023-11-22T01:58:02;13.57;;;9.90;;
27857;SDS011;16852;51.446;6.528;2023-11-22T02:00:04;11.63;;;9.17;;
27857;SDS011;16852;51.446;6.528;2023-11-22T02:02:07;15.88;;;9.98;;
27857;SDS011;16852;51.446;6.528;2023-11-22T02:04:08;17.13;;;11.45;;
27857;SDS011;16852;51.446;6.528;2023-11-22T02:06:09;16.40;;;10.73;;
27857;SDS011;16852;51.446;6.528;2023-11-22T02:08:10;15.20;;;10.85;;
27857;SDS011;16852;51.446;6.528;2023-11-22T02:10:12;12.55;;;9.52;;
27857;SDS011;16852;51.446;6.528;2023-11-22T02:12:12;17.13;;;11.52;;
27857;SDS011;16852;51.446;6.528;2023-11-22T02:14:14;16.80;;;11.38;;
27857;SDS011;16852;51.446;6.528;2023-11-22T02:16:15;14.52;;;9.90;;
27857;SDS011;16852;51.446;6.528;2023-11-22T02:18:16;13.68;;;10.05;;
27857;SDS011;16852;51.446;6.528;2023-11-22T02:20:17;14.27;;;10.02;;
27857;SDS011;16852;51.446;6.528;2023-11-22T02:22:17;14.57;;;9.90;;
27857;SDS011;16852;51.446;6.528;2023-11-22T02:24:18;13.50;;;9.48;;
27857;SDS011;16852;51.446;6.528;2023-11-22T02:26:20;15.98;;;10.20;;
27857;SDS011;16852;51.446;6.528;2023-11-22T02:28:21;12.88;;;9.38;;
27857;SDS011;16852;51.446;6.528;2023-11-22T02:30:22;14.73;;;10.25;;
27857;SDS011;16852;51.446;6.528;2023-11-22T02:32:23;14.73;;;9.40;;
27857;SDS011;16852;51.446;6.528;2023-11-22T02:34:24;13.73;;;9.68;;
27857;SDS011;16852;51.446;6.528;2023-11-22T02:36:25;11.43;;;8.65;;
27857;SDS011;16852;51.446;6.528;2023-11-22T02:38:26;13.90;;;10.05;;
27857;SDS011;16852;51.446;6.528;2023-11-22T02:40:28;13.52;;;9.30;;
27857;SDS011;16852;51.446;6.528;2023-11-22T02:42:28;13.60;;;9.73;;
27857;SDS011;16852;51.446;6.528;2023-11-22T02:44:29;13.13;;;9.00;;
27857;SDS011;16852;51.446;6.528;2023-11-22T02:46:29;12.52;;;9.27;;
27857;SDS011;16852;51.446;6.528;2023-11-22T02:48:31;13.90;;;9.57;;
27857;SDS011;16852;51.446;6.528;2023-11-22T02:50:32;14.27;;;9.73;;
27857;SDS011;16852;51.446;6.528;2023-11-22T02:52:34;14.35;;;9.80;;
27857;SDS011;16852;51.446;6.528;2023-11-22T02:54:35;15.10;;;9.70;;
27857;SDS011;16852;51.446;6.528;2023-11-22T02:56:36;15.38;;;10.82;;
27857;SDS011;16852;51.446;6.528;2023-11-22T02:58:36;13.40;;;9.68;;
27857;SDS011;16852;51.446;6.528;2023-11-22T03:00:37;20.38;;;10.70;;
27857;SDS011;16852;51.446;6.528;2023-11-22T03:02:38;14.70;;;10.73;;
27857;SDS011;16852;51.446;6.528;2023-11-22T03:04:41;14.93;;;10.70;;
27857;SDS011;16852;51.446;6.528;2023-11-22T03:06:42;14.02;;;10.20;;
27857;SDS011;16852;51.446;6.528;2023-11-22T03:08:42;16.15;;;11.02;;
27857;SDS011;16852;51.446;6.528;2023-11-22T03:10:44;16.48;;;10.40;;
27857;SDS011;16852;51.446;6.528;2023-11-22T03:12:45;16.42;;;11.38;;
27857;SDS011;16852;51.446;6.528;2023-11-22T03:14:48;14.82;;;10.13;;
27857;SDS011;16852;51.446;6.528;2023-11-22T03:16:49;13.85;;;9.60;;
27857;SDS011;16852;51.446;6.528;2023-11-22T03:18:50;15.02;;;10.35;;
27857;SDS011;16852;51.446;6.528;2023-11-22T03:20:51;13.98;;;10.50;;
27857;SDS011;16852;51.446;6.528;2023-11-22T03:22:54;14.57;;;10.00;;
27857;SDS011;16852;51.446;6.528;2023-11-22T03:24:55;15.32;;;10.50;;
27857;SDS011;16852;51.446;6.528;2023-11-22T03:26:56;14.90;;;11.10;;
27857;SDS011;16852;51.446;6.528;2023-11-22T03:28:58;16.25;;;11.00;;
27857;SDS011;16852;51.446;6.528;2023-11-22T03:30:59;15.45;;;10.13;;
27857;SDS011;16852;51.446;6.528;2023-11-22T03:33:00;18.25;;;10.18;;
27857;SDS011;16852;51.446;6.528;2023-11-22T03:35:00;14.90;;;10.43;;
27857;SDS011;16852;51.446;6.528;2023-11-22T03:37:01;13.43;;;9.40;;
27857;SDS011;16852;51.446;6.528;2023-11-22T03:39:02;16.13;;;9.70;;
27857;SDS011;16852;51.446;6.528;2023-11-22T03:41:02;14.57;;;9.45;;
27857;SDS011;16852;51.446;6.528;2023-11-22T03:43:03;15.02;;;10.70;;
27857;SDS011;16852;51.446;6.528;2023-11-22T03:45:04;13.55;;;9.50;;
27857;SDS011;16852;51.446;6.528;2023-11-22T03:47:05;13.45;;;9.65;;
27857;SDS011;16852;51.446;6.528;2023-11-22T03:49:06;12.25;;;9.00;;
27857;SDS011;16852;51.446;6.528;2023-11-22T03:51:07;13.52;;;9.55;;
27857;SDS011;16852;51.446;6.528;2023-11-22T03:53:08;14.93;;;9.68;;
27857;SDS011;16852;51.446;6.528;2023-11-22T03:55:08;11.68;;;8.77;;
27857;SDS011;16852;51.446;6.528;2023-11-22T03:57:09;14.57;;;10.40;;
27857;SDS011;16852;51.446;6.528;2023-11-22T03:59:09;13.80;;;9.13;;
27857;SDS011;16852;51.446;6.528;2023-11-22T04:01:10;14.70;;;9.98;;
27857;SDS011;16852;51.446;6.528;2023-11-22T04:03:11;14.27;;;9.02;;
27857;SDS011;16852;51.446;6.528;2023-11-22T04:05:12;11.85;;;8.27;;
27857;SDS011;16852;51.446;6.528;2023-11-22T04:07:13;14.23;;;9.13;;
27857;SDS011;16852;51.446;6.528;2023-11-22T04:09:14;13.82;;;9.82;;
27857;SDS011;16852;51.446;6.528;2023-11-22T04:11:16;13.77;;;9.65;;
27857;SDS011;16852;51.446;6.528;2023-11-22T04:13:18;14.02;;;9.52;;
27857;SDS011;16852;51.446;6.528;2023-11-22T04:15:18;13.68;;;9.07;;
27857;SDS011;16852;51.446;6.528;2023-11-22T04:17:19;12.68;;;8.75;;
27857;SDS011;16852;51.446;6.528;2023-11-22T04:19:19;14.93;;;10.50;;
27857;SDS011;16852;51.446;6.528;2023-11-22T04:21:21;12.43;;;8.55;;
27857;SDS011;16852;51.446;6.528;2023-11-22T04:23:21;13.13;;;9.85;;
27857;SDS011;16852;51.446;6.528;2023-11-22T04:25:22;16.90;;;9.90;;
27857;SDS011;16852;51.446;6.528;2023-11-22T04:27:23;17.02;;;9.70;;
27857;SDS011;16852;51.446;6.528;2023-11-22T04:29:24;13.95;;;9.25;;
27857;SDS011;16852;51.446;6.528;2023-11-22T04:31:25;13.90;;;10.07;;
27857;SDS011;16852;51.446;6.528;2023-11-22T04:33:25;13.80;;;9.35;;
27857;SDS011;16852;51.446;6.528;2023-11-22T04:35:29;15.27;;;10.15;;
27857;SDS011;16852;51.446;6.528;2023-11-22T04:37:34;12.35;;;8.70;;
27857;SDS011;16852;51.446;6.528;2023-11-22T04:39:34;15.93;;;9.57;;
27857;SDS011;16852;51.446;6.528;2023-11-22T04:41:35;14.45;;;9.93;;
27857;SDS011;16852;51.446;6.528;2023-11-22T04:43:36;12.98;;;9.13;;
27857;SDS011;16852;51.446;6.528;2023-11-22T04:45:37;13.25;;;9.20;;
27857;SDS011;16852;51.446;6.528;2023-11-22T04:47:37;14.13;;;9.50;;
27857;SDS011;16852;51.446;6.528;2023-11-22T04:49:38;12.88;;;8.43;;
27857;SDS011;16852;51.446;6.528;2023-11-22T04:51:39;15.98;;;10.20;;
27857;SDS011;16852;51.446;6.528;2023-11-22T04:53:39;15.60;;;10.38;;
27857;SDS011;16852;51.446;6.528;2023-11-22T04:55:40;13.85;;;9.10;;
27857;SDS011;16852;51.446;6.528;2023-11-22T04:57:41;14.30;;;9.00;;
27857;SDS011;16852;51.446;6.528;2023-11-22T04:59:42;12.75;;;9.43;;
27857;SDS011;16852;51.446;6.528;2023-11-22T05:01:42;12.23;;;9.40;;
27857;SDS011;16852;51.446;6.528;2023-11-22T05:03:43;14.95;;;10.00;;
27857;SDS011;16852;51.446;6.528;2023-11-22T05:05:44;13.10;;;9.20;;
27857;SDS011;16852;51.446;6.528;2023-11-22T05:07:45;13.43;;;9.45;;
27857;SDS011;16852;51.446;6.528;2023-11-22T05:09:45;14.63;;;9.60;;
27857;SDS011;16852;51.446;6.528;2023-11-22T05:11:46;13.77;;;8.93;;
27857;SDS011;16852;51.446;6.528;2023-11-22T05:13:47;15.15;;;10.30;;
27857;SDS011;16852;51.446;6.528;2023-11-22T05:15:50;16.25;;;9.55;;
27857;SDS011;16852;51.446;6.528;2023-11-22T05:17:51;15.63;;;9.93;;
27857;SDS011;16852;51.446;6.528;2023-11-22T05:19:52;14.27;;;9.88;;
27857;SDS011;16852;51.446;6.528;2023-11-22T05:21:53;12.82;;;9.27;;
27857;SDS011;16852;51.446;6.528;2023-11-22T05:23:53;13.43;;;9.23;;
27857;SDS011;16852;51.446;6.528;2023-11-22T05:25:54;13.85;;;9.23;;
27857;SDS011;16852;51.446;6.528;2023-11-22T05:27:56;13.93;;;9.60;;
27857;SDS011;16852;51.446;6.528;2023-11-22T05:29:56;15.52;;;9.10;;
27857;SDS011;16852;51.446;6.528;2023-11-22T05:31:57;12.95;;;9.30;;
27857;SDS011;16852;51.446;6.528;2023-11-22T05:33:58;13.70;;;8.80;;
27857;SDS011;16852;51.446;6.528;2023-11-22T05:35:58;13.52;;;9.00;;
27857;SDS011;16852;51.446;6.528;2023-11-22T05:37:59;11.68;;;8.60;;
27857;SDS011;16852;51.446;6.528;2023-11-22T05:39:59;12.88;;;8.80;;
27857;SDS011;16852;51.446;6.528;2023-11-22T05:42:00;13.25;;;9.15;;
27857;SDS011;16852;51.446;6.528;2023-11-22T05:44:00;13.13;;;8.38;;
27857;SDS011;16852;51.446;6.528;2023-11-22T05:46:05;12.18;;;8.18;;
27857;SDS011;16852;51.446;6.528;2023-11-22T05:48:07;13.65;;;9.40;;
27857;SDS011;16852;51.446;6.528;2023-11-22T05:50:07;12.05;;;8.73;;
27857;SDS011;16852;51.446;6.528;2023-11-22T05:52:09;12.48;;;8.55;;
27857;SDS011;16852;51.446;6.528;2023-11-22T05:54:09;12.30;;;8.65;;
27857;SDS011;16852;51.446;6.528;2023-11-22T05:56:12;13.55;;;8.77;;
27857;SDS011;16852;51.446;6.528;2023-11-22T05:58:13;11.20;;;8.18;;
27857;SDS011;16852;51.446;6.528;2023-11-22T06:00:17;12.05;;;8.57;;
27857;SDS011;16852;51.446;6.528;2023-11-22T06:02:17;11.45;;;8.35;;
27857;SDS011;16852;51.446;6.528;2023-11-22T06:04:18;11.38;;;8.40;;
27857;SDS011;16852;51.446;6.528;2023-11-22T06:06:19;11.15;;;8.10;;
27857;SDS011;16852;51.446;6.528;2023-11-22T06:08:21;13.32;;;8.48;;
27857;SDS011;16852;51.446;6.528;2023-11-22T06:10:22;11.48;;;7.57;;
27857;SDS011;16852;51.446;6.528;2023-11-22T06:12:23;11.40;;;8.10;;
27857;SDS011;16852;51.446;6.528;2023-11-22T06:14:24;10.63;;;7.80;;
27857;SDS011;16852;51.446;6.528;2023-11-22T06:16:25;12.85;;;8.60;;
27857;SDS011;16852;51.446;6.528;2023-11-22T06:18:25;12.10;;;8.32;;
27857;SDS011;16852;51.446;6.528;2023-11-22T06:20:29;11.18;;;7.90;;
27857;SDS011;16852;51.446;6.528;2023-11-22T06:22:30;11.00;;;7.95;;
27857;SDS011;16852;51.446;6.528;2023-11-22T06:24:32;11.65;;;7.85;;
27857;SDS011;16852;51.446;6.528;2023-11-22T06:26:34;9.75;;;7.03;;
27857;SDS011;16852;51.446;6.528;2023-11-22T06:28:34;11.25;;;7.82;;
27857;SDS011;16852;51.446;6.528;2023-11-22T06:30:35;14.68;;;8.68;;
27857;SDS011;16852;51.446;6.528;2023-11-22T06:32:36;11.38;;;8.38;;
27857;SDS011;16852;51.446;6.528;2023-11-22T06:34:36;12.52;;;8.32;;
27857;SDS011;16852;51.446;6.528;2023-11-22T06:36:37;15.27;;;8.88;;
27857;SDS011;16852;51.446;6.528;2023-11-22T06:38:38;13.38;;;9.77;;
27857;SDS011;16852;51.446;6.528;2023-11-22T06:40:38;15.10;;;9.35;;
27857;SDS011;16852;51.446;6.528;2023-11-22T06:42:39;15.15;;;9.32;;
27857;SDS011;16852;51.446;6.528;2023-11-22T06:44:41;13.45;;;8.68;;
27857;SDS011;16852;51.446;6.528;2023-11-22T06:46:42;14.68;;;8.65;;
27857;SDS011;16852;51.446;6.528;2023-11-22T06:48:42;11.73;;;8.63;;
27857;SDS011;16852;51.446;6.528;2023-11-22T06:50:47;13.75;;;7.85;;
27857;SDS011;16852;51.446;6.528;2023-11-22T06:52:48;11.55;;;8.15;;
27857;SDS011;16852;51.446;6.528;2023-11-22T06:54:50;12.63;;;8.63;;
27857;SDS011;16852;51.446;6.528;2023-11-22T06:56:51;14.18;;;8.70;;
27857;SDS011;16852;51.446;6.528;2023-11-22T06:58:52;11.32;;;7.78;;
27857;SDS011;16852;51.446;6.528;2023-11-22T07:00:52;11.57;;;7.47;;
27857;SDS011;16852;51.446;6.528;2023-11-22T07:02:53;11.48;;;8.00;;
27857;SDS011;16852;51.446;6.528;2023-11-22T07:04:53;11.18;;;7.40;;
27857;SDS011;16852;51.446;6.528;2023-11-22T07:06:54;10.63;;;7.38;;
27857;SDS011;16852;51.446;6.528;2023-11-22T07:08:55;11.20;;;7.75;;
27857;SDS011;16852;51.446;6.528;2023-11-22T07:10:56;10.00;;;6.95;;
27857;SDS011;16852;51.446;6.528;2023-11-22T07:12:59;11.18;;;7.47;;
27857;SDS011;16852;51.446;6.528;2023-11-22T07:15:03;9.27;;;6.75;;
27857;SDS011;16852;51.446;6.528;2023-11-22T07:17:05;10.48;;;7.57;;
27857;SDS011;16852;51.446;6.528;2023-11-22T07:19:10;9.35;;;6.88;;
27857;SDS011;16852;51.446;6.528;2023-11-22T07:21:12;10.25;;;7.47;;
27857;SDS011;16852;51.446;6.528;2023-11-22T07:23:13;12.80;;;7.60;;
27857;SDS011;16852;51.446;6.528;2023-11-22T07:25:15;11.73;;;8.10;;
27857;SDS011;16852;51.446;6.528;2023-11-22T07:27:19;13.25;;;7.90;;
27857;SDS011;16852;51.446;6.528;2023-11-22T07:29:20;9.98;;;7.10;;
27857;SDS011;16852;51.446;6.528;2023-11-22T07:31:21;10.98;;;7.53;;
27857;SDS011;16852;51.446;6.528;2023-11-22T07:33:22;10.70;;;7.15;;
27857;SDS011;16852;51.446;6.528;2023-11-22T07:35:26;10.30;;;6.97;;
27857;SDS011;16852;51.446;6.528;2023-11-22T07:37:28;9.63;;;6.30;;
27857;SDS011;16852;51.446;6.528;2023-11-22T07:39:28;8.88;;;6.53;;
27857;SDS011;16852;51.446;6.528;2023-11-22T07:41:29;10.88;;;7.50;;
27857;SDS011;16852;51.446;6.528;2023-11-22T07:43:31;9.60;;;7.00;;
27857;SDS011;16852;51.446;6.528;2023-11-22T07:45:32;10.20;;;7.35;;
27857;SDS011;16852;51.446;6.528;2023-11-22T07:47:32;9.65;;;6.95;;
27857;SDS011;16852;51.446;6.528;2023-11-22T07:49:33;10.85;;;7.40;;
27857;SDS011;16852;51.446;6.528;2023-11-22T07:51:36;12.20;;;7.18;;
27857;SDS011;16852;51.446;6.528;2023-11-22T07:53:37;11.02;;;7.18;;
27857;SDS011;16852;51.446;6.528;2023-11-22T07:55:39;11.55;;;7.57;;
27857;SDS011;16852;51.446;6.528;2023-11-22T07:57:41;10.75;;;7.40;;
27857;SDS011;16852;51.446;6.528;2023-11-22T07:59:43;10.70;;;7.78;;
27857;SDS011;16852;51.446;6.528;2023-11-22T08:01:44;11.18;;;7.70;;
27857;SDS011;16852;51.446;6.528;2023-11-22T08:03:48;11.57;;;7.85;;
27857;SDS011;16852;51.446;6.528;2023-11-22T08:05:52;10.00;;;7.18;;
27857;SDS011;16852;51.446;6.528;2023-11-22T08:07:55;12.73;;;7.65;;
27857;SDS011;16852;51.446;6.528;2023-11-22T08:09:57;10.90;;;7.68;;
27857;SDS011;16852;51.446;6.528;2023-11-22T08:11:58;12.00;;;8.43;;
27857;SDS011;16852;51.446;6.528;2023-11-22T08:14:02;13.43;;;8.27;;
27857;SDS011;16852;51.446;6.528;2023-11-22T08:16:04;11.48;;;7.80;;
27857;SDS011;16852;51.446;6.528;2023-11-22T08:18:05;10.68;;;7.63;;
27857;SDS011;16852;51.446;6.528;2023-11-22T08:20:06;10.30;;;7.35;;
27857;SDS011;16852;51.446;6.528;2023-11-22T08:22:11;9.73;;;7.00;;
27857;SDS011;16852;51.446;6.528;2023-11-22T08:24:12;9.27;;;7.38;;
27857;SDS011;16852;51.446;6.528;2023-11-22T08:26:13;9.68;;;6.85;;
27857;SDS011;16852;51.446;6.528;2023-11-22T08:28:14;9.10;;;6.68;;
27857;SDS011;16852;51.446;6.528;2023-11-22T08:30:14;10.15;;;7.20;;
27857;SDS011;16852;51.446;6.528;2023-11-22T08:32:15;9.10;;;6.55;;
27857;SDS011;16852;51.446;6.528;2023-11-22T08:34:23;11.20;;;7.43;;
27857;SDS011;16852;51.446;6.528;2023-11-22T08:36:24;8.45;;;6.57;;
27857;SDS011;16852;51.446;6.528;2023-11-22T08:38:24;13.60;;;8.20;;
27857;SDS011;16852;51.446;6.528;2023-11-22T08:40:26;14.07;;;8.13;;
27857;SDS011;16852;51.446;6.528;2023-11-22T08:42:27;10.35;;;7.65;;
27857;SDS011;16852;51.446;6.528;2023-11-22T08:44:27;10.38;;;7.72;;
27857;SDS011;16852;51.446;6.528;2023-11-22T08:46:28;10.90;;;7.55;;
27857;SDS011;16852;51.446;6.528;2023-11-22T08:48:28;11.10;;;7.70;;
27857;SDS011;16852;51.446;6.528;2023-11-22T08:50:29;9.80;;;7.45;;
27857;SDS011;16852;51.446;6.528;2023-11-22T08:52:30;9.85;;;6.97;;
27857;SDS011;16852;51.446;6.528;2023-11-22T08:54:31;11.02;;;7.03;;
27857;SDS011;16852;51.446;6.528;2023-11-22T08:56:31;8.10;;;5.63;;
27857;SDS011;16852;51.446;6.528;2023-11-22T08:58:35;9.13;;;6.53;;
27857;SDS011;16852;51.446;6.528;2023-11-22T09:00:35;9.45;;;6.40;;
27857;SDS011;16852;51.446;6.528;2023-11-22T09:02:42;12.27;;;6.70;;
27857;SDS011;16852;51.446;6.528;2023-11-22T09:04:42;8.93;;;6.25;;
27857;SDS011;16852;51.446;6.528;2023-11-22T09:06:43;8.05;;;5.95;;
27857;SDS011;16852;51.446;6.528;2023-11-22T09:08:44;8.10;;;5.78;;
27857;SDS011;16852;51.446;6.528;2023-11-22T09:10:46;9.73;;;6.18;;
27857;SDS011;16852;51.446;6.528;2023-11-22T09:12:47;9.90;;;6.18;;
27857;SDS011;16852;51.446;6.528;2023-11-22T09:14:47;9.32;;;6.10;;
27857;SDS011;16852;51.446;6.528;2023-11-22T09:16:49;8.63;;;6.00;;
27857;SDS011;16852;51.446;6.528;2023-11-22T09:18:54;9.60;;;6.32;;
27857;SDS011;16852;51.446;6.528;2023-11-22T09:20:57;9.70;;;6.07;;
27857;SDS011;16852;51.446;6.528;2023-11-22T09:22:58;8.68;;;5.85;;
27857;SDS011;16852;51.446;6.528;2023-11-22T09:24:59;10.70;;;5.80;;
27857;SDS011;16852;51.446;6.528;2023-11-22T09:26:59;10.88;;;6.40;;
27857;SDS011;16852;51.446;6.528;2023-11-22T09:29:01;9.27;;;6.35;;
27857;SDS011;16852;51.446;6.528;2023-11-22T09:31:02;11.77;;;6.72;;
27857;SDS011;16852;51.446;6.528;2023-11-22T09:33:06;10.40;;;6.25;;
27857;SDS011;16852;51.446;6.528;2023-11-22T09:35:08;9.75;;;6.18;;
27857;SDS011;16852;51.446;6.528;2023-11-22T09:37:09;8.95;;;5.57;;
27857;SDS011;16852;51.446;6.528;2023-11-22T09:39:10;9.02;;;6.10;;
27857;SDS011;16852;51.446;6.528;2023-11-22T09:41:11;10.02;;;6.55;;
27857;SDS011;16852;51.446;6.528;2023-11-22T09:43:16;8.07;;;5.65;;
27857;SDS011;16852;51.446;6.528;2023-11-22T09:45:19;9.57;;;6.30;;
27857;SDS011;16852;51.446;6.528;2023-11-22T09:47:20;11.00;;;6.55;;
27857;SDS011;16852;51.446;6.528;2023-11-22T09:49:24;9.00;;;6.50;;
27857;SDS011;16852;51.446;6.528;2023-11-22T09:51:31;11.25;;;6.75;;
27857;SDS011;16852;51.446;6.528;2023-11-22T09:56:07;9.98;;;6.13;;
27857;SDS011;16852;51.446;6.528;2023-11-22T09:58:10;10.35;;;6.53;;
27857;SDS011;16852;51.446;6.528;2023-11-22T10:02:15;10.85;;;5.97;;
27857;SDS011;16852;51.446;6.528;2023-11-22T10:04:16;10.15;;;6.25;;
27857;SDS011;16852;51.446;6.528;2023-11-22T10:06:17;12.25;;;6.35;;
27857;SDS011;16852;51.446;6.528;2023-11-22T10:08:18;8.90;;;5.68;;
27857;SDS011;16852;51.446;6.528;2023-11-22T10:10:21;9.48;;;5.75;;
27857;SDS011;16852;51.446;6.528;2023-11-22T10:12:27;10.60;;;6.25;;
27857;SDS011;16852;51.446;6.528;2023-11-22T10:14:30;9.20;;;5.60;;
27857;SDS011;16852;51.446;6.528;2023-11-22T10:16:31;10.98;;;6.50;;
27857;SDS011;16852;51.446;6.528;2023-11-22T10:18:32;7.97;;;5.75;;
27857;SDS011;16852;51.446;6.528;2023-11-22T10:20:38;8.65;;;5.38;;
27857;SDS011;16852;51.446;6.528;2023-11-22T10:22:46;8.32;;;5.28;;
27857;SDS011;16852;51.446;6.528;2023-11-22T10:24:50;10.45;;;6.00;;
27857;SDS011;16852;51.446;6.528;2023-11-22T10:26:53;7.88;;;4.88;;
27857;SDS011;16852;51.446;6.528;2023-11-22T10:28:56;9.15;;;5.03;;
27857;SDS011;16852;51.446;6.528;2023-11-22T10:30:57;11.07;;;5.68;;
27857;SDS011;16852;51.446;6.528;2023-11-22T10:32:57;10.32;;;6.10;;
27857;SDS011;16852;51.446;6.528;2023-11-22T10:34:58;9.43;;;5.22;;
27857;SDS011;16852;51.446;6.528;2023-11-22T10:36:59;10.07;;;5.68;;
27857;SDS011;16852;51.446;6.528;2023-11-22T10:39:05;10.50;;;5.80;;
27857;SDS011;16852;51.446;6.528;2023-11-22T10:41:09;10.65;;;5.65;;
27857;SDS011;16852;51.446;6.528;2023-11-22T10:43:11;7.80;;;5.15;;
27857;SDS011;16852;51.446;6.528;2023-11-22T10:45:12;9.75;;;5.88;;
27857;SDS011;16852;51.446;6.528;2023-11-22T10:47:15;10.20;;;5.43;;
27857;SDS011;16852;51.446;6.528;2023-11-22T10:49:19;10.88;;;5.78;;
27857;SDS011;16852;51.446;6.528;2023-11-22T10:51:21;8.57;;;5.60;;
27857;SDS011;16852;51.446;6.528;2023-11-22T10:53:33;10.13;;;5.47;;
27857;SDS011;16852;51.446;6.528;2023-11-22T10:55:34;11.68;;;6.32;;
27857;SDS011;16852;51.446;6.528;2023-11-22T10:57:44;8.23;;;4.78;;
27857;SDS011;16852;51.446;6.528;2023-11-22T10:59:54;8.10;;;5.80;;
27857;SDS011;16852;51.446;6.528;2023-11-22T11:01:55;8.38;;;5.15;;
27857;SDS011;16852;51.446;6.528;2023-11-22T11:04:01;8.70;;;5.68;;
27857;SDS011;16852;51.446;6.528;2023-11-22T11:06:08;7.63;;;5.40;;
27857;SDS011;16852;51.446;6.528;2023-11-22T11:08:13;10.13;;;5.82;;
27857;SDS011;16852;51.446;6.528;2023-11-22T11:10:18;9.05;;;5.15;;
27857;SDS011;16852;51.446;6.528;2023-11-22T11:12:20;7.82;;;5.45;;
27857;SDS011;16852;51.446;6.528;2023-11-22T11:14:21;8.52;;;5.00;;
27857;SDS011;16852;51.446;6.528;2023-11-22T11:16:23;10.43;;;6.47;;
27857;SDS011;16852;51.446;6.528;2023-11-22T11:18:25;9.10;;;5.63;;
27857;SDS011;16852;51.446;6.528;2023-11-22T11:20:48;12.55;;;6.47;;
27857;SDS011;16852;51.446;6.528;2023-11-22T11:22:49;8.50;;;5.22;;
27857;SDS011;16852;51.446;6.528;2023-11-22T11:24:59;10.40;;;6.20;;
27857;SDS011;16852;51.446;6.528;2023-11-22T11:27:03;10.00;;;5.95;;
27857;SDS011;16852;51.446;6.528;2023-11-22T11:29:04;10.30;;;5.95;;
27857;SDS011;16852;51.446;6.528;2023-11-22T11:31:06;9.48;;;5.45;;
27857;SDS011;16852;51.446;6.528;2023-11-22T11:33:06;10.20;;;5.47;;
27857;SDS011;16852;51.446;6.528;2023-11-22T11:35:07;11.38;;;5.75;;
27857;SDS011;16852;51.446;6.528;2023-11-22T11:37:08;10.60;;;5.78;;
27857;SDS011;16852;51.446;6.528;2023-11-22T11:39:13;11.73;;;5.82;;
27857;SDS011;16852;51.446;6.528;2023-11-22T11:41:14;8.32;;;5.00;;
27857;SDS011;16852;51.446;6.528;2023-11-22T11:43:15;9.23;;;4.88;;
27857;SDS011;16852;51.446;6.528;2023-11-22T11:45:21;8.95;;;5.40;;
27857;SDS011;16852;51.446;6.528;2023-11-22T11:47:25;9.75;;;5.43;;
27857;SDS011;16852;51.446;6.528;2023-11-22T11:49:25;6.85;;;4.72;;
27857;SDS011;16852;51.446;6.528;2023-11-22T11:51:27;7.38;;;4.53;;
27857;SDS011;16852;51.446;6.528;2023-11-22T11:53:29;5.68;;;3.78;;
27857;SDS011;16852;51.446;6.528;2023-11-22T11:55:31;6.07;;;3.80;;
27857;SDS011;16852;51.446;6.528;2023-11-22T11:57:32;6.88;;;3.30;;
27857;SDS011;16852;51.446;6.528;2023-11-22T11:59:33;4.88;;;2.72;;
27857;SDS011;16852;51.446;6.528;2023-11-22T12:01:35;5.72;;;3.03;;
27857;SDS011;16852;51.446;6.528;2023-11-22T12:03:36;5.93;;;3.42;;
27857;SDS011;16852;51.446;6.528;2023-11-22T12:05:37;5.38;;;3.05;;
27857;SDS011;16852;51.446;6.528;2023-11-22T12:07:38;3.80;;;3.05;;
27857;SDS011;16852;51.446;6.528;2023-11-22T12:09:39;4.65;;;3.13;;